createdAt,value
2023-01-19T00:04:09.530Z,98245.59
2023-01-19T00:09:14.458Z,98257.03
2023-01-19T00:14:17.941Z,98257.25
2023-01-19T00:19:21.364Z,98246.72
2023-01-19T00:24:26.167Z,98245.91
2023-01-19T00:29:34.365Z,98252.16
2023-01-19T00:34:39.609Z,98256.28
2023-01-19T00:39:44.996Z,98245.19
2023-01-19T00:44:48.711Z,98233.25
2023-01-19T00:49:52.382Z,98233.56
2023-01-19T00:54:57.465Z,98220.53
2023-01-19T01:00:00.797Z,98217.84
2023-01-19T01:05:04.200Z,98227.59
2023-01-19T01:10:10.847Z,98222.97
2023-01-19T01:15:15.785Z,98228.72
2023-01-19T01:20:21.924Z,98215.69
2023-01-19T01:25:28.010Z,98213.72
2023-01-19T01:30:31.847Z,98211.16
2023-01-19T01:35:35.610Z,98216.16
2023-01-19T01:40:42.225Z,98212.94
2023-01-19T01:45:46.395Z,98221.03
2023-01-19T01:51:11.941Z,98220.00
2023-01-19T01:56:24.315Z,98219.03
2023-01-19T02:01:45.336Z,98215.84
2023-01-19T02:07:06.745Z,98217.09
2023-01-19T02:12:29.177Z,98217.03
2023-01-19T02:17:33.059Z,98195.28
2023-01-19T02:22:59.982Z,98194.94
2023-01-19T02:28:05.828Z,98197.28
2023-01-19T02:33:09.697Z,98186.56
2023-01-19T02:38:14.709Z,98196.25
2023-01-19T02:43:20.652Z,98210.97
2023-01-19T02:48:24.043Z,98215.19
2023-01-19T02:53:53.662Z,98198.66
2023-01-19T02:59:07.743Z,98199.50
2023-01-19T03:04:19.670Z,98191.56
2023-01-19T03:09:29.942Z,98195.06
2023-01-19T03:14:40.160Z,98203.66
2023-01-19T03:19:47.834Z,98203.66
2023-01-19T03:24:54.743Z,98198.41
2023-01-19T03:30:02.847Z,98200.00
2023-01-19T03:35:11.951Z,98194.72
2023-01-19T03:40:15.743Z,98196.31
2023-01-19T03:45:21.847Z,98200.00
2023-01-19T03:50:27.770Z,98199.44
2023-01-19T03:55:31.473Z,98197.41
2023-01-19T04:00:37.005Z,98192.97
2023-01-19T04:05:40.568Z,98190.19
2023-01-19T04:10:44.217Z,98205.78
2023-01-19T04:15:49.362Z,98204.03
2023-01-19T04:20:53.123Z,98201.47
2023-01-19T04:25:59.015Z,98209.06
2023-01-19T04:31:04.661Z,98206.38
2023-01-19T04:36:08.592Z,98209.88
2023-01-19T04:41:11.995Z,98216.09
2023-01-19T04:46:17.185Z,98224.81
2023-01-19T04:51:20.577Z,98226.63
2023-01-19T04:56:24.288Z,98240.41
2023-01-19T05:01:29.502Z,98230.00
2023-01-19T05:06:33.050Z,98243.84
2023-01-19T05:11:36.493Z,98241.47
2023-01-19T05:16:41.303Z,98241.28
2023-01-19T05:21:44.709Z,98246.81
2023-01-19T05:26:48.281Z,98258.81
2023-01-19T05:31:53.458Z,98274.44
2023-01-19T05:36:56.943Z,98273.47
2023-01-19T05:42:00.643Z,98275.38
2023-01-19T05:47:05.497Z,98280.53
2023-01-19T05:52:09.022Z,98289.13
2023-01-19T05:57:12.721Z,98297.97
2023-01-19T06:02:17.527Z,98315.25
2023-01-19T06:07:20.904Z,98332.59
2023-01-19T06:12:24.597Z,98320.53
2023-01-19T06:17:29.455Z,98331.69
2023-01-19T06:22:32.843Z,98337.16
2023-01-19T06:27:36.502Z,98347.31
2023-01-19T06:32:41.298Z,98350.66
2023-01-19T06:37:44.696Z,98342.06
2023-01-19T06:42:50.029Z,98357.38
2023-01-19T06:47:55.178Z,98358.28
2023-01-19T06:52:58.902Z,98357.22
2023-01-19T06:58:02.863Z,98354.50
2023-01-19T07:03:09.567Z,98347.28
2023-01-19T07:08:13.090Z,98362.75
2023-01-19T07:13:16.817Z,98371.41
2023-01-19T07:18:21.891Z,98367.81
2023-01-19T07:23:25.699Z,98370.03
2023-01-19T07:28:29.302Z,98361.75
2023-01-19T07:33:34.097Z,98366.13
2023-01-19T07:38:37.565Z,98373.56
2023-01-19T07:43:41.027Z,98388.66
2023-01-19T07:48:47.468Z,98382.31
2023-01-19T07:53:52.126Z,98397.81
2023-01-19T07:58:55.499Z,98409.13
2023-01-19T08:04:00.591Z,98421.16
2023-01-19T08:09:05.779Z,98412.81
2023-01-19T08:14:09.542Z,98428.72
2023-01-19T08:19:14.387Z,98423.09
2023-01-19T08:24:21.474Z,98421.88
2023-01-19T08:29:25.137Z,98425.56
2023-01-19T08:34:31.047Z,98423.84
2023-01-19T08:39:34.805Z,98429.63
2023-01-19T08:44:46.717Z,98420.50
2023-01-19T08:49:57.985Z,98403.09
2023-01-19T08:55:01.680Z,98417.50
2023-01-19T09:00:09.339Z,98406.03
2023-01-19T09:05:14.648Z,98376.66
2023-01-19T09:10:18.729Z,98378.66
2023-01-19T09:15:22.123Z,98368.47
2023-01-19T09:20:27.278Z,98359.38
2023-01-19T09:25:30.665Z,98371.91
2023-01-19T09:30:36.739Z,98357.91
2023-01-19T09:35:42.708Z,98355.59
2023-01-19T09:40:49.693Z,98352.22
2023-01-19T09:45:57.068Z,98345.84
2023-01-19T09:51:06.081Z,98345.09
2023-01-19T09:56:14.519Z,98333.41
2023-01-19T10:01:28.728Z,98320.59
2023-01-19T10:06:33.755Z,98329.41
2023-01-19T10:11:52.738Z,98300.88
2023-01-19T10:17:05.569Z,98310.72
2023-01-19T10:22:22.115Z,98314.88
2023-01-19T10:27:30.612Z,98330.06
2023-01-19T10:32:36.929Z,98324.94
2023-01-19T10:37:42.164Z,98329.53
2023-01-19T10:42:45.559Z,98314.34
2023-01-19T10:47:50.225Z,98330.91
2023-01-19T10:52:57.590Z,98313.03
2023-01-19T10:58:01.077Z,98300.88
2023-01-19T11:03:05.988Z,98290.97
2023-01-19T11:08:24.500Z,98276.03
2023-01-19T11:13:28.142Z,98275.53
2023-01-19T11:18:34.318Z,98259.28
2023-01-19T11:23:43.236Z,98266.13
2023-01-19T11:28:51.475Z,98278.06
2023-01-19T11:33:57.026Z,98274.56
2023-01-19T11:39:21.841Z,98244.09
2023-01-19T11:44:30.041Z,98253.13
2023-01-19T11:49:43.584Z,98240.81
2023-01-19T11:54:56.194Z,98208.69
2023-01-19T12:00:03.648Z,98256.13
2023-01-19T12:05:16.377Z,98264.94
2023-01-19T12:10:27.135Z,98244.38
2023-01-19T12:15:36.243Z,98263.13
2023-01-19T12:20:44.525Z,98267.78
2023-01-19T12:26:00.272Z,98265.19
2023-01-19T12:31:05.150Z,98278.78
2023-01-19T12:36:14.276Z,98282.78
2023-01-19T12:41:27.027Z,98314.31
2023-01-19T12:46:32.229Z,98277.09
2023-01-19T12:51:35.720Z,98290.22
2023-01-19T12:56:40.616Z,98306.19
2023-01-19T13:01:44.371Z,98317.00
2023-01-19T13:07:18.023Z,98339.72
2023-01-19T13:12:25.483Z,98331.44
2023-01-19T13:17:34.595Z,98338.13
2023-01-19T13:23:20.044Z,98357.53
2023-01-19T13:28:33.253Z,98347.72
2023-01-19T13:33:55.960Z,98359.97
2023-01-19T13:39:02.163Z,98332.88
2023-01-19T13:44:14.283Z,98362.16
2023-01-19T13:49:22.462Z,98315.13
2023-01-19T13:54:27.151Z,98325.59
2023-01-19T13:59:32.239Z,98331.06
2023-01-19T14:04:35.615Z,98326.94
2023-01-19T14:09:39.956Z,98338.84
2023-01-19T14:14:46.841Z,98322.50
2023-01-19T14:19:51.062Z,98329.19
2023-01-19T14:24:54.739Z,98352.50
2023-01-19T14:30:22.190Z,98355.78
2023-01-19T14:35:26.861Z,98351.31
2023-01-19T14:40:31.789Z,98348.25
2023-01-19T14:45:39.393Z,98326.88
2023-01-19T14:50:54.143Z,98330.00
2023-01-19T14:56:04.585Z,98327.75
2023-01-19T15:01:10.583Z,98313.22
2023-01-19T15:06:16.637Z,98317.00
2023-01-19T15:11:24.149Z,98308.66
2023-01-19T15:16:30.947Z,98307.38
2023-01-19T15:21:34.396Z,98310.25
2023-01-19T15:26:39.477Z,98321.50
2023-01-19T15:31:44.711Z,98318.72
2023-01-19T15:36:48.163Z,98347.09
2023-01-19T15:41:51.714Z,98355.66
2023-01-19T15:46:57.458Z,98362.84
2023-01-19T15:52:00.928Z,98361.28
2023-01-19T15:57:04.529Z,98360.22
2023-01-19T16:02:10.821Z,98352.34
2023-01-19T16:07:14.405Z,98365.66
2023-01-19T16:12:18.162Z,98352.47
2023-01-19T16:17:22.990Z,98350.63
2023-01-19T16:22:26.427Z,98340.44
2023-01-19T16:27:30.349Z,98340.22
2023-01-19T16:32:36.597Z,98342.16
2023-01-19T16:37:40.363Z,98358.28
2023-01-19T16:42:43.767Z,98384.03
2023-01-19T16:47:50.723Z,98384.03
2023-01-19T16:52:58.239Z,98367.75
2023-01-19T16:58:01.945Z,98362.38
2023-01-19T17:03:06.820Z,98370.97
2023-01-19T17:08:10.809Z,98353.50
2023-01-19T17:13:14.340Z,98347.53
2023-01-19T17:18:19.499Z,98347.81
2023-01-19T17:23:22.905Z,98362.03
2023-01-19T17:28:26.829Z,98380.63
2023-01-19T17:33:31.658Z,98380.56
2023-01-19T17:38:35.433Z,98373.25
2023-01-19T17:43:39.041Z,98371.31
2023-01-19T17:48:44.080Z,98354.41
2023-01-19T17:53:48.118Z,98362.53
2023-01-19T17:58:52.361Z,98359.03
2023-01-19T18:03:57.563Z,98349.19
2023-01-19T18:09:01.277Z,98354.72
2023-01-19T18:14:06.095Z,98361.59
2023-01-19T18:19:11.461Z,98350.34
2023-01-19T18:24:15.462Z,98343.78
2023-01-19T18:29:26.565Z,98341.94
2023-01-19T18:34:31.509Z,98357.38
2023-01-19T18:39:35.613Z,98309.00
2023-01-19T18:44:39.081Z,98294.44
2023-01-19T18:49:44.443Z,98317.94
2023-01-19T18:54:49.392Z,98281.41
2023-01-19T18:59:53.677Z,98302.28
2023-01-19T19:04:58.733Z,98300.72
2023-01-19T19:10:02.282Z,98310.63
2023-01-19T19:15:09.439Z,98319.44
2023-01-19T19:20:15.288Z,98346.44
2023-01-19T19:25:20.114Z,98373.31
2023-01-19T19:30:23.789Z,98361.94
2023-01-19T19:35:29.364Z,98360.59
2023-01-19T19:40:32.832Z,98362.47
2023-01-19T19:45:36.606Z,98376.47
2023-01-19T19:50:41.536Z,98379.16
2023-01-19T19:55:45.386Z,98367.31
2023-01-19T20:00:48.926Z,98385.94
2023-01-19T20:05:54.113Z,98383.56
2023-01-19T20:11:06.257Z,98380.13
2023-01-19T20:16:13.957Z,98399.25
2023-01-19T20:21:20.736Z,98399.09
2023-01-19T20:26:26.768Z,98390.03
2023-01-19T20:31:31.868Z,98427.16
2023-01-19T20:36:36.878Z,98419.34
2023-01-19T20:41:45.116Z,98410.84
2023-01-19T20:46:48.598Z,98411.34
2023-01-19T20:51:54.202Z,98417.72
2023-01-19T20:56:59.845Z,98409.13
2023-01-19T21:02:03.321Z,98412.34
2023-01-19T21:07:09.119Z,98386.81
2023-01-19T21:12:13.454Z,98394.09
2023-01-19T21:17:16.880Z,98419.75
2023-01-19T21:22:21.820Z,98415.22
2023-01-19T21:27:25.525Z,98430.81
2023-01-19T21:32:29.442Z,98433.59
2023-01-19T21:37:34.308Z,98423.97
2023-01-19T21:42:37.774Z,98402.44
2023-01-19T21:47:41.429Z,98413.13
2023-01-19T21:52:47.009Z,98400.13
2023-01-19T21:57:52.896Z,98404.38
2023-01-19T22:03:03.753Z,98401.78
2023-01-19T22:08:09.691Z,98402.63
2023-01-19T22:13:13.259Z,98388.03
2023-01-19T22:18:16.698Z,98405.41
2023-01-19T22:23:21.504Z,98402.88
2023-01-19T22:28:24.977Z,98411.59
2023-01-19T22:33:30.128Z,98416.91
2023-01-19T22:38:34.944Z,98402.06
2023-01-19T22:43:38.699Z,98399.44
2023-01-19T22:48:42.362Z,98398.00
2023-01-19T22:53:47.607Z,98379.25
2023-01-19T22:58:51.679Z,98380.34
2023-01-19T23:03:55.673Z,98373.25
2023-01-19T23:09:02.017Z,98366.91
2023-01-19T23:14:07.077Z,98365.13
2023-01-19T23:19:13.868Z,98352.06
2023-01-19T23:24:19.020Z,98348.66
2023-01-19T23:29:22.395Z,98344.16
2023-01-19T23:34:25.790Z,98345.19
2023-01-19T23:39:30.993Z,98330.94
2023-01-19T23:44:34.620Z,98344.28
2023-01-19T23:49:39.727Z,98337.88
2023-01-19T23:54:45.078Z,98331.88
2023-01-19T23:59:48.536Z,98342.81
